sensor_id;sensor_type;location;lat;lon;timestamp;P1;durP1;ratioP1;P2;durP2;ratioP2
14681;SDS011;7429;52.498;13.480;2023-02-15T00:01:25;47.97;;;28.10;;
14681;SDS011;7429;52.498;13.480;2023-02-15T00:04:28;41.27;;;26.97;;
14681;SDS011;7429;52.498;13.480;2023-02-15T00:07:47;46.47;;;28.27;;
14681;SDS011;7429;52.498;13.480;2023-02-15T00:10:52;44.50;;;26.77;;
14681;SDS011;7429;52.498;13.480;2023-02-15T00:13:55;44.87;;;27.77;;
14681;SDS011;7429;52.498;13.480;2023-02-15T00:16:59;46.73;;;28.30;;
14681;SDS011;7429;52.498;13.480;2023-02-15T00:20:03;46.70;;;27.20;;
14681;SDS011;7429;52.498;13.480;2023-02-15T00:23:08;53.30;;;31.73;;
14681;SDS011;7429;52.498;13.480;2023-02-15T00:26:13;53.07;;;29.53;;
14681;SDS011;7429;52.498;13.480;2023-02-15T00:29:18;55.57;;;28.97;;
14681;SDS011;7429;52.498;13.480;2023-02-15T00:32:22;52.30;;;29.53;;
14681;SDS011;7429;52.498;13.480;2023-02-15T00:35:26;48.30;;;29.03;;
14681;SDS011;7429;52.498;13.480;2023-02-15T00:38:29;52.17;;;28.17;;
14681;SDS011;7429;52.498;13.480;2023-02-15T00:41:34;52.00;;;29.90;;
14681;SDS011;7429;52.498;13.480;2023-02-15T00:44:38;50.17;;;30.03;;
14681;SDS011;7429;52.498;13.480;2023-02-15T00:47:41;50.97;;;30.50;;
14681;SDS011;7429;52.498;13.480;2023-02-15T00:50:45;49.00;;;28.60;;
14681;SDS011;7429;52.498;13.480;2023-02-15T00:53:49;55.43;;;28.50;;
14681;SDS011;7429;52.498;13.480;2023-02-15T00:56:53;46.27;;;28.73;;
14681;SDS011;7429;52.498;13.480;2023-02-15T00:59:57;51.10;;;30.40;;
14681;SDS011;7429;52.498;13.480;2023-02-15T01:03:00;44.67;;;28.27;;
14681;SDS011;7429;52.498;13.480;2023-02-15T01:06:03;51.43;;;30.83;;
14681;SDS011;7429;52.498;13.480;2023-02-15T01:09:06;52.23;;;28.23;;
14681;SDS011;7429;52.498;13.480;2023-02-15T01:12:12;43.87;;;28.37;;
14681;SDS011;7429;52.498;13.480;2023-02-15T01:15:15;51.40;;;29.20;;
14681;SDS011;7429;52.498;13.480;2023-02-15T01:18:18;50.40;;;30.70;;
14681;SDS011;7429;52.498;13.480;2023-02-15T01:21:23;44.53;;;27.60;;
14681;SDS011;7429;52.498;13.480;2023-02-15T01:24:27;53.23;;;29.30;;
14681;SDS011;7429;52.498;13.480;2023-02-15T01:27:32;53.97;;;30.67;;
14681;SDS011;7429;52.498;13.480;2023-02-15T01:30:35;48.93;;;28.50;;
14681;SDS011;7429;52.498;13.480;2023-02-15T01:33:39;55.27;;;32.00;;
14681;SDS011;7429;52.498;13.480;2023-02-15T01:36:43;51.60;;;29.20;;
14681;SDS011;7429;52.498;13.480;2023-02-15T01:39:48;50.73;;;28.60;;
14681;SDS011;7429;52.498;13.480;2023-02-15T01:42:54;53.27;;;29.63;;
14681;SDS011;7429;52.498;13.480;2023-02-15T01:46:00;49.77;;;28.27;;
14681;SDS011;7429;52.498;13.480;2023-02-15T01:49:05;47.60;;;28.00;;
14681;SDS011;7429;52.498;13.480;2023-02-15T01:52:16;51.23;;;29.63;;
14681;SDS011;7429;52.498;13.480;2023-02-15T01:55:21;54.27;;;29.57;;
14681;SDS011;7429;52.498;13.480;2023-02-15T01:58:27;58.77;;;30.43;;
14681;SDS011;7429;52.498;13.480;2023-02-15T02:01:33;52.93;;;30.00;;
14681;SDS011;7429;52.498;13.480;2023-02-15T02:04:38;57.93;;;32.37;;
14681;SDS011;7429;52.498;13.480;2023-02-15T02:07:46;58.53;;;30.73;;
14681;SDS011;7429;52.498;13.480;2023-02-15T02:10:53;62.27;;;32.57;;
14681;SDS011;7429;52.498;13.480;2023-02-15T02:13:58;58.53;;;32.63;;
14681;SDS011;7429;52.498;13.480;2023-02-15T02:17:05;63.57;;;32.67;;
14681;SDS011;7429;52.498;13.480;2023-02-15T02:20:16;64.00;;;34.60;;
14681;SDS011;7429;52.498;13.480;2023-02-15T02:24:04;68.83;;;33.67;;
14681;SDS011;7429;52.498;13.480;2023-02-15T02:27:33;65.73;;;33.53;;
14681;SDS011;7429;52.498;13.480;2023-02-15T02:30:55;65.00;;;34.60;;
14681;SDS011;7429;52.498;13.480;2023-02-15T02:34:22;66.07;;;34.77;;
14681;SDS011;7429;52.498;13.480;2023-02-15T02:37:34;63.63;;;33.57;;
14681;SDS011;7429;52.498;13.480;2023-02-15T02:40:51;64.87;;;35.00;;
14681;SDS011;7429;52.498;13.480;2023-02-15T02:44:04;63.87;;;32.17;;
14681;SDS011;7429;52.498;13.480;2023-02-15T02:47:16;62.83;;;34.23;;
14681;SDS011;7429;52.498;13.480;2023-02-15T02:50:27;72.03;;;36.07;;
14681;SDS011;7429;52.498;13.480;2023-02-15T02:53:32;70.83;;;33.43;;
14681;SDS011;7429;52.498;13.480;2023-02-15T02:56:37;69.60;;;35.37;;
14681;SDS011;7429;52.498;13.480;2023-02-15T02:59:44;86.67;;;41.07;;
14681;SDS011;7429;52.498;13.480;2023-02-15T03:02:50;81.00;;;38.63;;
14681;SDS011;7429;52.498;13.480;2023-02-15T03:06:01;79.23;;;36.23;;
14681;SDS011;7429;52.498;13.480;2023-02-15T03:09:10;79.23;;;36.20;;
14681;SDS011;7429;52.498;13.480;2023-02-15T03:12:17;78.63;;;38.70;;
14681;SDS011;7429;52.498;13.480;2023-02-15T03:15:28;77.67;;;37.83;;
14681;SDS011;7429;52.498;13.480;2023-02-15T03:18:51;82.37;;;37.80;;
14681;SDS011;7429;52.498;13.480;2023-02-15T03:22:01;82.17;;;38.80;;
14681;SDS011;7429;52.498;13.480;2023-02-15T03:25:12;81.23;;;37.40;;
14681;SDS011;7429;52.498;13.480;2023-02-15T03:28:21;81.43;;;37.80;;
14681;SDS011;7429;52.498;13.480;2023-02-15T03:31:28;87.17;;;40.47;;
14681;SDS011;7429;52.498;13.480;2023-02-15T03:34:40;86.87;;;38.27;;
14681;SDS011;7429;52.498;13.480;2023-02-15T03:37:46;84.43;;;39.93;;
14681;SDS011;7429;52.498;13.480;2023-02-15T03:40:53;85.33;;;38.70;;
14681;SDS011;7429;52.498;13.480;2023-02-15T03:44:13;77.80;;;37.87;;
14681;SDS011;7429;52.498;13.480;2023-02-15T03:47:25;84.30;;;41.13;;
14681;SDS011;7429;52.498;13.480;2023-02-15T03:50:32;86.80;;;39.93;;
14681;SDS011;7429;52.498;13.480;2023-02-15T03:54:06;83.43;;;37.87;;
14681;SDS011;7429;52.498;13.480;2023-02-15T03:57:17;83.00;;;39.17;;
14681;SDS011;7429;52.498;13.480;2023-02-15T04:00:41;81.00;;;38.90;;
14681;SDS011;7429;52.498;13.480;2023-02-15T04:04:10;75.87;;;37.33;;
14681;SDS011;7429;52.498;13.480;2023-02-15T04:07:21;87.53;;;39.70;;
14681;SDS011;7429;52.498;13.480;2023-02-15T04:10:27;89.90;;;39.07;;
14681;SDS011;7429;52.498;13.480;2023-02-15T04:13:47;88.43;;;38.17;;
14681;SDS011;7429;52.498;13.480;2023-02-15T04:16:57;87.83;;;38.80;;
14681;SDS011;7429;52.498;13.480;2023-02-15T04:19:59;79.93;;;37.33;;
14681;SDS011;7429;52.498;13.480;2023-02-15T04:23:20;76.63;;;35.40;;
14681;SDS011;7429;52.498;13.480;2023-02-15T04:26:44;90.90;;;37.83;;
14681;SDS011;7429;52.498;13.480;2023-02-15T04:29:51;86.20;;;39.73;;
14681;SDS011;7429;52.498;13.480;2023-02-15T04:32:56;87.23;;;38.07;;
14681;SDS011;7429;52.498;13.480;2023-02-15T04:35:59;90.13;;;39.47;;
14681;SDS011;7429;52.498;13.480;2023-02-15T04:39:03;86.40;;;39.23;;
14681;SDS011;7429;52.498;13.480;2023-02-15T04:42:08;81.70;;;38.17;;
14681;SDS011;7429;52.498;13.480;2023-02-15T04:45:12;83.60;;;38.13;;
14681;SDS011;7429;52.498;13.480;2023-02-15T04:48:15;88.37;;;38.63;;
14681;SDS011;7429;52.498;13.480;2023-02-15T04:51:18;82.17;;;37.47;;
14681;SDS011;7429;52.498;13.480;2023-02-15T04:54:21;81.30;;;37.77;;
14681;SDS011;7429;52.498;13.480;2023-02-15T04:57:26;77.73;;;36.40;;
14681;SDS011;7429;52.498;13.480;2023-02-15T05:00:29;80.13;;;37.27;;
14681;SDS011;7429;52.498;13.480;2023-02-15T05:03:35;87.07;;;39.20;;
14681;SDS011;7429;52.498;13.480;2023-02-15T05:06:39;77.50;;;37.40;;
14681;SDS011;7429;52.498;13.480;2023-02-15T05:09:42;85.87;;;38.40;;
14681;SDS011;7429;52.498;13.480;2023-02-15T05:12:47;85.50;;;37.97;;
14681;SDS011;7429;52.498;13.480;2023-02-15T05:15:51;88.23;;;39.73;;
14681;SDS011;7429;52.498;13.480;2023-02-15T05:18:55;87.00;;;37.50;;
14681;SDS011;7429;52.498;13.480;2023-02-15T05:21:58;84.90;;;38.97;;
14681;SDS011;7429;52.498;13.480;2023-02-15T05:25:02;87.40;;;39.87;;
14681;SDS011;7429;52.498;13.480;2023-02-15T05:28:26;95.67;;;39.40;;
14681;SDS011;7429;52.498;13.480;2023-02-15T05:31:30;89.60;;;38.67;;
14681;SDS011;7429;52.498;13.480;2023-02-15T05:34:34;88.07;;;38.43;;
14681;SDS011;7429;52.498;13.480;2023-02-15T05:37:38;83.33;;;38.87;;
14681;SDS011;7429;52.498;13.480;2023-02-15T05:40:41;88.70;;;38.73;;
14681;SDS011;7429;52.498;13.480;2023-02-15T05:43:49;94.87;;;41.13;;
14681;SDS011;7429;52.498;13.480;2023-02-15T05:46:52;96.03;;;40.97;;
14681;SDS011;7429;52.498;13.480;2023-02-15T05:49:55;103.10;;;42.10;;
14681;SDS011;7429;52.498;13.480;2023-02-15T05:52:58;95.73;;;39.57;;
14681;SDS011;7429;52.498;13.480;2023-02-15T05:56:02;91.30;;;41.10;;
14681;SDS011;7429;52.498;13.480;2023-02-15T05:59:08;103.57;;;41.80;;
14681;SDS011;7429;52.498;13.480;2023-02-15T06:02:11;104.27;;;42.27;;
14681;SDS011;7429;52.498;13.480;2023-02-15T06:05:14;106.07;;;43.20;;
14681;SDS011;7429;52.498;13.480;2023-02-15T06:08:18;105.73;;;42.33;;
14681;SDS011;7429;52.498;13.480;2023-02-15T06:11:21;101.20;;;42.37;;
14681;SDS011;7429;52.498;13.480;2023-02-15T06:14:26;116.33;;;43.03;;
14681;SDS011;7429;52.498;13.480;2023-02-15T06:17:29;111.10;;;42.93;;
14681;SDS011;7429;52.498;13.480;2023-02-15T06:20:32;112.33;;;42.50;;
14681;SDS011;7429;52.498;13.480;2023-02-15T06:23:35;125.53;;;41.47;;
14681;SDS011;7429;52.498;13.480;2023-02-15T06:26:39;136.00;;;43.67;;
14681;SDS011;7429;52.498;13.480;2023-02-15T06:29:43;172.80;;;45.93;;
14681;SDS011;7429;52.498;13.480;2023-02-15T06:32:47;115.70;;;41.23;;
14681;SDS011;7429;52.498;13.480;2023-02-15T06:35:50;131.80;;;41.27;;
14681;SDS011;7429;52.498;13.480;2023-02-15T06:38:54;211.77;;;42.87;;
14681;SDS011;7429;52.498;13.480;2023-02-15T06:41:58;282.67;;;45.17;;
14681;SDS011;7429;52.498;13.480;2023-02-15T06:45:03;171.53;;;42.87;;
14681;SDS011;7429;52.498;13.480;2023-02-15T06:48:09;251.87;;;47.57;;
14681;SDS011;7429;52.498;13.480;2023-02-15T06:51:12;145.67;;;39.43;;
14681;SDS011;7429;52.498;13.480;2023-02-15T06:54:16;155.80;;;41.00;;
14681;SDS011;7429;52.498;13.480;2023-02-15T06:57:19;155.27;;;42.17;;
14681;SDS011;7429;52.498;13.480;2023-02-15T07:00:23;114.57;;;40.87;;
14681;SDS011;7429;52.498;13.480;2023-02-15T07:03:27;170.97;;;42.83;;
14681;SDS011;7429;52.498;13.480;2023-02-15T07:06:30;107.20;;;40.37;;
14681;SDS011;7429;52.498;13.480;2023-02-15T07:09:34;156.77;;;43.73;;
14681;SDS011;7429;52.498;13.480;2023-02-15T07:12:37;187.20;;;43.60;;
14681;SDS011;7429;52.498;13.480;2023-02-15T07:15:47;251.87;;;46.07;;
14681;SDS011;7429;52.498;13.480;2023-02-15T07:18:51;212.73;;;44.37;;
14681;SDS011;7429;52.498;13.480;2023-02-15T07:21:54;108.07;;;40.33;;
14681;SDS011;7429;52.498;13.480;2023-02-15T07:24:57;169.37;;;44.37;;
14681;SDS011;7429;52.498;13.480;2023-02-15T07:28:01;184.27;;;44.77;;
14681;SDS011;7429;52.498;13.480;2023-02-15T07:31:08;118.73;;;42.37;;
14681;SDS011;7429;52.498;13.480;2023-02-15T07:34:11;167.53;;;41.57;;
14681;SDS011;7429;52.498;13.480;2023-02-15T07:37:14;175.87;;;41.97;;
14681;SDS011;7429;52.498;13.480;2023-02-15T07:40:18;166.93;;;42.70;;
14681;SDS011;7429;52.498;13.480;2023-02-15T07:43:23;217.27;;;45.90;;
14681;SDS011;7429;52.498;13.480;2023-02-15T07:46:28;167.83;;;39.33;;
14681;SDS011;7429;52.498;13.480;2023-02-15T07:49:31;215.37;;;44.83;;
14681;SDS011;7429;52.498;13.480;2023-02-15T07:52:35;181.10;;;44.03;;
14681;SDS011;7429;52.498;13.480;2023-02-15T07:55:38;225.13;;;44.30;;
14681;SDS011;7429;52.498;13.480;2023-02-15T07:58:41;123.53;;;41.80;;
14681;SDS011;7429;52.498;13.480;2023-02-15T08:01:55;146.30;;;41.30;;
14681;SDS011;7429;52.498;13.480;2023-02-15T08:04:58;147.10;;;42.27;;
14681;SDS011;7429;52.498;13.480;2023-02-15T08:08:04;136.43;;;43.73;;
14681;SDS011;7429;52.498;13.480;2023-02-15T08:11:15;178.03;;;45.57;;
14681;SDS011;7429;52.498;13.480;2023-02-15T08:14:34;167.73;;;46.60;;
14681;SDS011;7429;52.498;13.480;2023-02-15T08:17:38;131.13;;;43.83;;
14681;SDS011;7429;52.498;13.480;2023-02-15T08:20:42;126.27;;;42.63;;
14681;SDS011;7429;52.498;13.480;2023-02-15T08:23:51;136.87;;;40.77;;
14681;SDS011;7429;52.498;13.480;2023-02-15T08:26:55;123.77;;;40.23;;
14681;SDS011;7429;52.498;13.480;2023-02-15T08:30:00;124.97;;;43.17;;
14681;SDS011;7429;52.498;13.480;2023-02-15T08:33:05;130.13;;;41.80;;
14681;SDS011;7429;52.498;13.480;2023-02-15T08:36:09;107.87;;;43.33;;
14681;SDS011;7429;52.498;13.480;2023-02-15T08:39:14;141.47;;;42.37;;
14681;SDS011;7429;52.498;13.480;2023-02-15T08:42:20;167.17;;;45.33;;
14681;SDS011;7429;52.498;13.480;2023-02-15T08:45:23;120.73;;;41.60;;
14681;SDS011;7429;52.498;13.480;2023-02-15T08:48:28;129.47;;;45.80;;
14681;SDS011;7429;52.498;13.480;2023-02-15T08:51:32;124.13;;;41.73;;
14681;SDS011;7429;52.498;13.480;2023-02-15T08:54:38;127.33;;;42.13;;
14681;SDS011;7429;52.498;13.480;2023-02-15T08:57:41;115.47;;;42.03;;
14681;SDS011;7429;52.498;13.480;2023-02-15T09:00:46;110.90;;;43.73;;
14681;SDS011;7429;52.498;13.480;2023-02-15T09:03:51;131.13;;;45.37;;
14681;SDS011;7429;52.498;13.480;2023-02-15T09:06:58;111.70;;;42.60;;
14681;SDS011;7429;52.498;13.480;2023-02-15T09:10:02;162.43;;;42.60;;
14681;SDS011;7429;52.498;13.480;2023-02-15T09:13:05;133.77;;;43.00;;
14681;SDS011;7429;52.498;13.480;2023-02-15T09:16:08;102.10;;;39.00;;
14681;SDS011;7429;52.498;13.480;2023-02-15T09:19:13;124.83;;;44.77;;
14681;SDS011;7429;52.498;13.480;2023-02-15T09:22:18;110.93;;;39.23;;
14681;SDS011;7429;52.498;13.480;2023-02-15T09:25:21;106.10;;;39.63;;
14681;SDS011;7429;52.498;13.480;2023-02-15T09:28:24;119.33;;;41.70;;
14681;SDS011;7429;52.498;13.480;2023-02-15T09:31:34;105.27;;;40.83;;
14681;SDS011;7429;52.498;13.480;2023-02-15T09:34:43;98.47;;;40.43;;
14681;SDS011;7429;52.498;13.480;2023-02-15T09:37:47;111.63;;;43.87;;
14681;SDS011;7429;52.498;13.480;2023-02-15T09:40:52;99.40;;;40.10;;
14681;SDS011;7429;52.498;13.480;2023-02-15T09:44:12;98.67;;;40.37;;
14681;SDS011;7429;52.498;13.480;2023-02-15T09:47:29;95.03;;;37.17;;
14681;SDS011;7429;52.498;13.480;2023-02-15T09:50:52;91.53;;;37.53;;
14681;SDS011;7429;52.498;13.480;2023-02-15T09:54:18;85.80;;;38.47;;
14681;SDS011;7429;52.498;13.480;2023-02-15T09:57:59;93.17;;;39.97;;
14681;SDS011;7429;52.498;13.480;2023-02-15T10:01:12;83.97;;;37.23;;
14681;SDS011;7429;52.498;13.480;2023-02-15T10:04:27;83.77;;;38.97;;
14681;SDS011;7429;52.498;13.480;2023-02-15T10:07:57;84.33;;;38.20;;
14681;SDS011;7429;52.498;13.480;2023-02-15T10:11:45;87.63;;;37.50;;
14681;SDS011;7429;52.498;13.480;2023-02-15T10:15:09;79.70;;;37.50;;
14681;SDS011;7429;52.498;13.480;2023-02-15T10:18:33;74.93;;;36.27;;
14681;SDS011;7429;52.498;13.480;2023-02-15T10:21:56;83.23;;;39.67;;
14681;SDS011;7429;52.498;13.480;2023-02-15T10:25:15;84.60;;;38.47;;
14681;SDS011;7429;52.498;13.480;2023-02-15T10:28:33;73.87;;;36.57;;
14681;SDS011;7429;52.498;13.480;2023-02-15T10:31:47;80.93;;;36.80;;
14681;SDS011;7429;52.498;13.480;2023-02-15T10:34:56;74.27;;;37.20;;
14681;SDS011;7429;52.498;13.480;2023-02-15T10:38:06;77.30;;;38.40;;
14681;SDS011;7429;52.498;13.480;2023-02-15T10:41:26;73.40;;;37.30;;
14681;SDS011;7429;52.498;13.480;2023-02-15T10:44:42;70.23;;;36.37;;
14681;SDS011;7429;52.498;13.480;2023-02-15T10:48:08;71.03;;;36.07;;
14681;SDS011;7429;52.498;13.480;2023-02-15T10:51:29;78.03;;;38.27;;
14681;SDS011;7429;52.498;13.480;2023-02-15T10:54:42;66.13;;;33.67;;
14681;SDS011;7429;52.498;13.480;2023-02-15T10:57:56;69.40;;;36.00;;
14681;SDS011;7429;52.498;13.480;2023-02-15T11:01:13;62.27;;;32.70;;
14681;SDS011;7429;52.498;13.480;2023-02-15T11:04:29;60.60;;;32.57;;
14681;SDS011;7429;52.498;13.480;2023-02-15T11:07:47;62.27;;;34.30;;
14681;SDS011;7429;52.498;13.480;2023-02-15T11:10:54;55.77;;;31.27;;
14681;SDS011;7429;52.498;13.480;2023-02-15T11:14:05;58.93;;;33.60;;
14681;SDS011;7429;52.498;13.480;2023-02-15T11:17:19;63.03;;;31.97;;
14681;SDS011;7429;52.498;13.480;2023-02-15T11:20:30;56.73;;;32.10;;
14681;SDS011;7429;52.498;13.480;2023-02-15T11:23:40;51.87;;;30.77;;
14681;SDS011;7429;52.498;13.480;2023-02-15T11:26:47;55.83;;;32.07;;
14681;SDS011;7429;52.498;13.480;2023-02-15T11:30:00;51.63;;;30.90;;
14681;SDS011;7429;52.498;13.480;2023-02-15T11:33:16;53.33;;;28.70;;
14681;SDS011;7429;52.498;13.480;2023-02-15T11:36:24;53.80;;;31.33;;
14681;SDS011;7429;52.498;13.480;2023-02-15T11:39:31;47.70;;;28.97;;
14681;SDS011;7429;52.498;13.480;2023-02-15T11:42:38;48.80;;;31.40;;
14681;SDS011;7429;52.498;13.480;2023-02-15T11:45:45;47.17;;;29.30;;
14681;SDS011;7429;52.498;13.480;2023-02-15T11:48:49;48.27;;;27.73;;
14681;SDS011;7429;52.498;13.480;2023-02-15T11:51:52;41.77;;;26.60;;
14681;SDS011;7429;52.498;13.480;2023-02-15T11:54:57;46.40;;;28.33;;
14681;SDS011;7429;52.498;13.480;2023-02-15T12:01:51;41.73;;;26.63;;
14681;SDS011;7429;52.498;13.480;2023-02-15T12:04:54;43.10;;;26.87;;
14681;SDS011;7429;52.498;13.480;2023-02-15T12:08:01;42.97;;;26.27;;
14681;SDS011;7429;52.498;13.480;2023-02-15T12:11:12;36.37;;;23.67;;
14681;SDS011;7429;52.498;13.480;2023-02-15T12:14:25;35.90;;;23.43;;
14681;SDS011;7429;52.498;13.480;2023-02-15T12:17:30;38.03;;;23.03;;
14681;SDS011;7429;52.498;13.480;2023-02-15T12:20:45;38.80;;;23.53;;
14681;SDS011;7429;52.498;13.480;2023-02-15T12:23:50;36.90;;;23.53;;
14681;SDS011;7429;52.498;13.480;2023-02-15T12:26:56;38.03;;;23.87;;
14681;SDS011;7429;52.498;13.480;2023-02-15T12:30:07;36.73;;;22.87;;
14681;SDS011;7429;52.498;13.480;2023-02-15T12:33:26;32.87;;;22.23;;
14681;SDS011;7429;52.498;13.480;2023-02-15T12:36:34;35.97;;;23.20;;
14681;SDS011;7429;52.498;13.480;2023-02-15T12:39:52;36.57;;;22.90;;
14681;SDS011;7429;52.498;13.480;2023-02-15T12:42:59;36.60;;;23.07;;
14681;SDS011;7429;52.498;13.480;2023-02-15T12:46:13;36.70;;;23.70;;
14681;SDS011;7429;52.498;13.480;2023-02-15T12:49:27;34.57;;;22.77;;
14681;SDS011;7429;52.498;13.480;2023-02-15T12:52:31;34.03;;;21.10;;
14681;SDS011;7429;52.498;13.480;2023-02-15T12:55:34;32.53;;;21.37;;
14681;SDS011;7429;52.498;13.480;2023-02-15T12:58:38;33.90;;;22.67;;
14681;SDS011;7429;52.498;13.480;2023-02-15T13:01:42;34.57;;;23.10;;
14681;SDS011;7429;52.498;13.480;2023-02-15T13:04:49;34.40;;;23.67;;
14681;SDS011;7429;52.498;13.480;2023-02-15T13:07:53;34.83;;;22.03;;
14681;SDS011;7429;52.498;13.480;2023-02-15T13:11:00;31.87;;;21.57;;
14681;SDS011;7429;52.498;13.480;2023-02-15T13:14:16;35.43;;;22.03;;
14681;SDS011;7429;52.498;13.480;2023-02-15T13:17:24;36.77;;;22.50;;
14681;SDS011;7429;52.498;13.480;2023-02-15T13:20:32;37.00;;;24.07;;
14681;SDS011;7429;52.498;13.480;2023-02-15T13:23:38;35.03;;;22.83;;
14681;SDS011;7429;52.498;13.480;2023-02-15T13:26:44;36.00;;;22.60;;
14681;SDS011;7429;52.498;13.480;2023-02-15T13:29:50;36.10;;;22.07;;
14681;SDS011;7429;52.498;13.480;2023-02-15T13:33:01;32.80;;;22.77;;
14681;SDS011;7429;52.498;13.480;2023-02-15T13:36:09;32.87;;;22.20;;
14681;SDS011;7429;52.498;13.480;2023-02-15T13:39:23;33.63;;;21.63;;
14681;SDS011;7429;52.498;13.480;2023-02-15T13:42:34;30.57;;;20.57;;
14681;SDS011;7429;52.498;13.480;2023-02-15T13:45:45;29.93;;;20.40;;
14681;SDS011;7429;52.498;13.480;2023-02-15T13:49:03;29.50;;;19.57;;
14681;SDS011;7429;52.498;13.480;2023-02-15T13:52:21;27.30;;;20.13;;
14681;SDS011;7429;52.498;13.480;2023-02-15T13:55:28;31.30;;;20.70;;
14681;SDS011;7429;52.498;13.480;2023-02-15T13:58:56;28.97;;;20.53;;
14681;SDS011;7429;52.498;13.480;2023-02-15T14:02:28;26.53;;;18.20;;
14681;SDS011;7429;52.498;13.480;2023-02-15T14:05:57;31.73;;;18.70;;
14681;SDS011;7429;52.498;13.480;2023-02-15T14:09:18;32.47;;;21.57;;
14681;SDS011;7429;52.498;13.480;2023-02-15T14:12:38;27.97;;;20.23;;
14681;SDS011;7429;52.498;13.480;2023-02-15T14:15:55;27.83;;;20.13;;
14681;SDS011;7429;52.498;13.480;2023-02-15T14:19:09;28.77;;;20.43;;
14681;SDS011;7429;52.498;13.480;2023-02-15T14:22:22;33.30;;;21.60;;
14681;SDS011;7429;52.498;13.480;2023-02-15T14:25:35;36.37;;;22.17;;
14681;SDS011;7429;52.498;13.480;2023-02-15T14:28:49;33.73;;;21.53;;
14681;SDS011;7429;52.498;13.480;2023-02-15T14:32:34;31.73;;;20.27;;
14681;SDS011;7429;52.498;13.480;2023-02-15T14:35:32;28.97;;;20.07;;
14681;SDS011;7429;52.498;13.480;2023-02-15T14:38:43;28.57;;;20.97;;
14681;SDS011;7429;52.498;13.480;2023-02-15T14:41:59;28.07;;;20.93;;
14681;SDS011;7429;52.498;13.480;2023-02-15T14:45:15;31.53;;;21.57;;
14681;SDS011;7429;52.498;13.480;2023-02-15T14:48:28;26.90;;;17.70;;
14681;SDS011;7429;52.498;13.480;2023-02-15T14:51:53;30.10;;;20.17;;
14681;SDS011;7429;52.498;13.480;2023-02-15T14:55:04;29.77;;;20.33;;
14681;SDS011;7429;52.498;13.480;2023-02-15T14:58:12;29.43;;;18.60;;
14681;SDS011;7429;52.498;13.480;2023-02-15T15:01:16;28.63;;;20.17;;
14681;SDS011;7429;52.498;13.480;2023-02-15T15:04:29;28.10;;;19.73;;
14681;SDS011;7429;52.498;13.480;2023-02-15T15:07:38;26.13;;;19.37;;
14681;SDS011;7429;52.498;13.480;2023-02-15T15:10:47;27.83;;;19.57;;
14681;SDS011;7429;52.498;13.480;2023-02-15T15:13:55;27.73;;;19.93;;
14681;SDS011;7429;52.498;13.480;2023-02-15T15:17:00;35.63;;;21.90;;
14681;SDS011;7429;52.498;13.480;2023-02-15T15:20:05;27.83;;;19.73;;
14681;SDS011;7429;52.498;13.480;2023-02-15T15:26:43;28.57;;;19.73;;
14681;SDS011;7429;52.498;13.480;2023-02-15T15:29:53;26.70;;;17.87;;
14681;SDS011;7429;52.498;13.480;2023-02-15T15:32:57;28.63;;;18.57;;
14681;SDS011;7429;52.498;13.480;2023-02-15T15:36:24;26.47;;;18.50;;
14681;SDS011;7429;52.498;13.480;2023-02-15T15:40:00;25.40;;;17.53;;
14681;SDS011;7429;52.498;13.480;2023-02-15T15:44:06;26.30;;;18.00;;
14681;SDS011;7429;52.498;13.480;2023-02-15T15:47:54;26.63;;;17.53;;
14681;SDS011;7429;52.498;13.480;2023-02-15T15:51:18;26.23;;;17.50;;
14681;SDS011;7429;52.498;13.480;2023-02-15T15:54:23;27.03;;;19.33;;
14681;SDS011;7429;52.498;13.480;2023-02-15T15:57:29;27.00;;;18.07;;
14681;SDS011;7429;52.498;13.480;2023-02-15T16:00:38;29.97;;;19.67;;
14681;SDS011;7429;52.498;13.480;2023-02-15T16:03:51;25.30;;;18.30;;
14681;SDS011;7429;52.498;13.480;2023-02-15T16:06:57;29.07;;;18.77;;
14681;SDS011;7429;52.498;13.480;2023-02-15T16:10:16;29.47;;;18.93;;
14681;SDS011;7429;52.498;13.480;2023-02-15T16:13:24;30.30;;;19.20;;
14681;SDS011;7429;52.498;13.480;2023-02-15T16:16:28;30.30;;;19.50;;
14681;SDS011;7429;52.498;13.480;2023-02-15T16:19:34;30.13;;;20.33;;
14681;SDS011;7429;52.498;13.480;2023-02-15T16:22:41;28.87;;;19.60;;
14681;SDS011;7429;52.498;13.480;2023-02-15T16:25:46;29.93;;;21.17;;
14681;SDS011;7429;52.498;13.480;2023-02-15T16:28:58;30.27;;;21.07;;
14681;SDS011;7429;52.498;13.480;2023-02-15T16:32:03;28.87;;;19.57;;
14681;SDS011;7429;52.498;13.480;2023-02-15T16:35:20;31.93;;;19.80;;
14681;SDS011;7429;52.498;13.480;2023-02-15T16:38:30;33.13;;;20.93;;
14681;SDS011;7429;52.498;13.480;2023-02-15T16:42:09;32.73;;;19.67;;
14681;SDS011;7429;52.498;13.480;2023-02-15T16:45:16;26.63;;;18.20;;
14681;SDS011;7429;52.498;13.480;2023-02-15T16:48:23;27.57;;;18.03;;
14681;SDS011;7429;52.498;13.480;2023-02-15T16:51:30;33.13;;;19.60;;
14681;SDS011;7429;52.498;13.480;2023-02-15T16:54:36;29.77;;;20.63;;
14681;SDS011;7429;52.498;13.480;2023-02-15T16:57:43;34.97;;;21.43;;
14681;SDS011;7429;52.498;13.480;2023-02-15T17:00:46;32.27;;;20.93;;
14681;SDS011;7429;52.498;13.480;2023-02-15T17:03:50;34.70;;;20.90;;
14681;SDS011;7429;52.498;13.480;2023-02-15T17:07:16;32.23;;;19.73;;
14681;SDS011;7429;52.498;13.480;2023-02-15T17:10:28;40.87;;;20.87;;
14681;SDS011;7429;52.498;13.480;2023-02-15T17:13:34;35.73;;;20.77;;
14681;SDS011;7429;52.498;13.480;2023-02-15T17:16:40;37.33;;;21.97;;
14681;SDS011;7429;52.498;13.480;2023-02-15T17:19:47;66.27;;;37.03;;
14681;SDS011;7429;52.498;13.480;2023-02-15T17:22:54;57.43;;;30.00;;
14681;SDS011;7429;52.498;13.480;2023-02-15T17:25:58;40.07;;;23.77;;
14681;SDS011;7429;52.498;13.480;2023-02-15T17:29:09;43.97;;;23.70;;
14681;SDS011;7429;52.498;13.480;2023-02-15T17:32:19;46.53;;;23.77;;
14681;SDS011;7429;52.498;13.480;2023-02-15T17:35:27;45.07;;;23.73;;
14681;SDS011;7429;52.498;13.480;2023-02-15T17:38:35;38.93;;;22.57;;
14681;SDS011;7429;52.498;13.480;2023-02-15T17:41:39;42.77;;;23.50;;
14681;SDS011;7429;52.498;13.480;2023-02-15T17:44:44;38.67;;;20.80;;
14681;SDS011;7429;52.498;13.480;2023-02-15T17:47:48;41.07;;;23.00;;
14681;SDS011;7429;52.498;13.480;2023-02-15T17:50:55;37.23;;;22.00;;
14681;SDS011;7429;52.498;13.480;2023-02-15T17:53:59;41.40;;;23.17;;
14681;SDS011;7429;52.498;13.480;2023-02-15T17:57:20;42.53;;;23.50;;
14681;SDS011;7429;52.498;13.480;2023-02-15T18:00:24;42.03;;;22.60;;
14681;SDS011;7429;52.498;13.480;2023-02-15T18:03:46;32.50;;;21.23;;
14681;SDS011;7429;52.498;13.480;2023-02-15T18:07:09;40.30;;;22.07;;
14681;SDS011;7429;52.498;13.480;2023-02-15T18:10:35;35.73;;;21.70;;
14681;SDS011;7429;52.498;13.480;2023-02-15T18:13:59;38.63;;;21.03;;
14681;SDS011;7429;52.498;13.480;2023-02-15T18:17:03;38.20;;;22.73;;
14681;SDS011;7429;52.498;13.480;2023-02-15T18:20:09;32.37;;;20.57;;
14681;SDS011;7429;52.498;13.480;2023-02-15T18:23:20;37.87;;;22.30;;
14681;SDS011;7429;52.498;13.480;2023-02-15T18:26:25;38.57;;;21.40;;
14681;SDS011;7429;52.498;13.480;2023-02-15T18:29:29;41.97;;;25.27;;
14681;SDS011;7429;52.498;13.480;2023-02-15T18:32:38;47.47;;;25.50;;